createdAt,value
2023-03-22T00:01:32.506Z,7.47
2023-03-22T00:03:59.262Z,7.39
2023-03-22T00:06:26.770Z,7.38
2023-03-22T00:08:54.457Z,7.37
2023-03-22T00:11:24.334Z,7.39
2023-03-22T00:13:52.725Z,7.37
2023-03-22T00:16:20.804Z,7.35
2023-03-22T00:18:47.756Z,7.40
2023-03-22T00:21:16.356Z,7.42
2023-03-22T00:23:43.595Z,7.36
2023-03-22T00:26:11.548Z,7.40
2023-03-22T00:28:39.012Z,7.40
2023-03-22T00:31:06.866Z,7.38
2023-03-22T00:33:36.387Z,7.38
2023-03-22T00:36:08.964Z,7.41
2023-03-22T00:38:42.879Z,7.42
2023-03-22T00:41:28.753Z,7.51
2023-03-22T00:43:55.522Z,7.42
2023-03-22T00:46:23.091Z,7.39
2023-03-22T00:48:49.862Z,7.35
2023-03-22T00:51:17.247Z,7.37
2023-03-22T00:53:44.141Z,7.38
2023-03-22T00:56:15.552Z,7.35
2023-03-22T00:58:46.216Z,7.35
2023-03-22T01:01:14.180Z,7.43
2023-03-22T01:03:42.993Z,7.39
2023-03-22T01:06:11.172Z,7.40
2023-03-22T01:08:39.218Z,7.40
2023-03-22T01:11:07.589Z,7.41
2023-03-22T01:13:37.621Z,7.40
2023-03-22T01:16:06.365Z,7.40
2023-03-22T01:18:34.334Z,7.37
2023-03-22T01:21:01.586Z,7.42
2023-03-22T01:23:28.630Z,7.35
2023-03-22T01:25:55.474Z,7.37
2023-03-22T01:28:22.304Z,7.34
2023-03-22T01:30:50.605Z,7.34
2023-03-22T01:33:17.503Z,7.36
2023-03-22T01:35:44.703Z,7.38
2023-03-22T01:38:11.624Z,7.34
2023-03-22T01:40:47.795Z,7.31
2023-03-22T01:43:17.198Z,7.33
2023-03-22T01:45:51.566Z,7.36
2023-03-22T01:48:27.192Z,7.38
2023-03-22T01:50:59.980Z,7.36
2023-03-22T01:53:30.102Z,7.35
2023-03-22T01:55:58.366Z,7.31
2023-03-22T01:58:32.228Z,7.35
2023-03-22T02:01:03.969Z,7.35
2023-03-22T02:04:09.491Z,7.38
2023-03-22T02:06:38.273Z,7.35
2023-03-22T02:09:13.154Z,7.34
2023-03-22T02:11:44.257Z,7.36
2023-03-22T02:14:36.540Z,7.38
2023-03-22T02:18:06.395Z,7.34
2023-03-22T02:21:24.506Z,7.38
2023-03-22T02:24:16.489Z,7.32
2023-03-22T02:27:04.994Z,7.35
2023-03-22T02:29:38.039Z,7.33
2023-03-22T02:32:26.641Z,7.32
2023-03-22T02:35:07.138Z,7.32
2023-03-22T02:37:57.470Z,7.32
2023-03-22T02:40:50.605Z,7.33
2023-03-22T02:43:31.231Z,7.30
2023-03-22T02:46:11.653Z,7.30
2023-03-22T02:48:56.582Z,7.31
2023-03-22T02:51:31.451Z,7.28
2023-03-22T02:54:13.986Z,7.29
2023-03-22T02:56:44.645Z,7.29
2023-03-22T02:59:13.392Z,7.23
2023-03-22T03:01:49.426Z,7.28
2023-03-22T03:04:21.271Z,7.28
2023-03-22T03:06:51.871Z,7.26
2023-03-22T03:09:20.659Z,7.29
2023-03-22T03:11:50.368Z,7.30
2023-03-22T03:14:29.992Z,7.32
2023-03-22T03:17:15.920Z,7.30
2023-03-22T03:19:58.413Z,7.26
2023-03-22T03:22:46.270Z,7.30
2023-03-22T03:25:27.481Z,7.33
2023-03-22T03:28:30.013Z,7.33
2023-03-22T03:31:24.112Z,7.34
2023-03-22T03:34:07.448Z,7.32
2023-03-22T03:36:37.984Z,7.32
2023-03-22T03:39:09.950Z,7.36
2023-03-22T03:41:37.010Z,7.34
2023-03-22T03:44:04.541Z,7.33
2023-03-22T03:46:31.500Z,7.38
2023-03-22T03:48:59.094Z,7.35
2023-03-22T03:51:27.685Z,7.41
2023-03-22T03:53:54.513Z,7.40
2023-03-22T03:56:22.366Z,7.42
2023-03-22T03:58:50.254Z,7.41
2023-03-22T04:01:19.669Z,7.44
2023-03-22T04:04:05.105Z,7.46
2023-03-22T04:06:44.968Z,7.48
2023-03-22T04:09:17.124Z,7.51
2023-03-22T04:11:47.711Z,7.50
2023-03-22T04:14:17.411Z,7.49
2023-03-22T04:16:47.475Z,7.47
2023-03-22T04:19:19.015Z,7.46
2023-03-22T04:21:45.965Z,7.48
2023-03-22T04:24:13.498Z,7.46
2023-03-22T04:26:42.545Z,7.48
2023-03-22T04:29:32.158Z,7.51
2023-03-22T04:32:19.017Z,7.50
2023-03-22T04:34:46.550Z,7.48
2023-03-22T04:37:16.134Z,7.49
2023-03-22T04:39:56.192Z,7.48
2023-03-22T04:42:35.565Z,7.50
2023-03-22T04:45:14.008Z,7.48
2023-03-22T04:47:44.128Z,7.49
2023-03-22T04:50:11.749Z,7.49
2023-03-22T04:52:48.164Z,7.48
2023-03-22T04:55:15.365Z,7.48
2023-03-22T04:57:43.809Z,7.51
2023-03-22T05:00:11.350Z,7.50
2023-03-22T05:02:41.409Z,7.47
2023-03-22T05:05:15.695Z,7.53
2023-03-22T05:07:43.822Z,7.54
2023-03-22T05:10:10.941Z,7.64
2023-03-22T05:12:38.619Z,7.68
2023-03-22T05:15:23.790Z,7.67
2023-03-22T05:17:52.019Z,7.67
2023-03-22T05:20:19.480Z,7.65
2023-03-22T05:22:57.212Z,7.60
2023-03-22T05:25:26.685Z,7.60
2023-03-22T05:27:54.318Z,7.64
2023-03-22T05:30:49.412Z,7.62
2023-03-22T05:33:36.487Z,7.59
2023-03-22T05:36:07.121Z,7.55
2023-03-22T05:38:39.545Z,7.53
2023-03-22T05:41:07.092Z,7.55
2023-03-22T05:43:34.744Z,7.62
2023-03-22T05:46:10.389Z,7.64
2023-03-22T05:48:42.445Z,7.72
2023-03-22T05:51:19.883Z,7.82
2023-03-22T05:53:51.755Z,7.90
2023-03-22T05:56:24.796Z,7.94
2023-03-22T05:58:59.895Z,7.93
2023-03-22T06:01:27.040Z,7.95
2023-03-22T06:04:13.972Z,7.96
2023-03-22T06:06:50.646Z,7.92
2023-03-22T06:09:35.946Z,7.62
2023-03-22T06:12:06.703Z,7.48
2023-03-22T06:14:36.510Z,7.39
2023-03-22T06:17:19.792Z,7.37
2023-03-22T06:19:48.357Z,7.22
2023-03-22T06:22:16.051Z,7.16
2023-03-22T06:24:46.076Z,7.08
2023-03-22T06:27:18.680Z,7.09
2023-03-22T06:29:50.727Z,7.02
2023-03-22T06:32:25.636Z,6.95
2023-03-22T06:34:56.138Z,6.98
2023-03-22T06:37:24.514Z,6.95
2023-03-22T06:39:52.267Z,7.00
2023-03-22T06:42:21.751Z,7.02
2023-03-22T06:44:59.418Z,7.09
2023-03-22T06:47:29.468Z,7.39
2023-03-22T06:50:19.868Z,7.71
2023-03-22T06:52:59.520Z,7.95
2023-03-22T06:55:26.513Z,8.23
2023-03-22T06:57:54.100Z,8.41
2023-03-22T07:00:21.098Z,9.00
2023-03-22T07:02:47.951Z,9.33
2023-03-22T07:05:40.928Z,9.06
2023-03-22T07:08:08.044Z,8.83
2023-03-22T07:10:40.985Z,9.56
2023-03-22T07:13:08.290Z,9.61
2023-03-22T07:15:36.503Z,10.19
2023-03-22T07:18:13.975Z,9.56
2023-03-22T07:20:41.972Z,9.80
2023-03-22T07:23:10.843Z,9.30
2023-03-22T07:25:46.187Z,9.52
2023-03-22T07:28:20.996Z,10.33
2023-03-22T07:30:48.526Z,9.89
2023-03-22T07:33:17.937Z,10.23
2023-03-22T07:35:44.767Z,10.32
2023-03-22T07:38:11.713Z,10.51
2023-03-22T07:40:39.143Z,9.97
2023-03-22T07:43:06.773Z,9.86
2023-03-22T07:45:46.489Z,9.02
2023-03-22T07:48:31.712Z,8.78
2023-03-22T07:51:33.292Z,9.25
2023-03-22T07:54:01.880Z,8.23
2023-03-22T07:56:36.708Z,8.24
2023-03-22T07:59:03.877Z,9.62
2023-03-22T08:01:30.676Z,9.63
2023-03-22T08:04:07.105Z,9.84
2023-03-22T08:07:10.004Z,10.34
2023-03-22T08:09:37.996Z,10.51
2023-03-22T08:12:06.306Z,10.99
2023-03-22T08:14:37.124Z,10.13
2023-03-22T08:17:08.225Z,9.77
2023-03-22T08:19:35.623Z,10.83
2023-03-22T08:22:03.747Z,10.62
2023-03-22T08:24:56.451Z,10.97
2023-03-22T08:27:27.317Z,10.72
2023-03-22T08:29:55.980Z,10.60
2023-03-22T08:32:22.680Z,10.46
2023-03-22T08:34:49.455Z,11.00
2023-03-22T08:37:16.194Z,10.40
2023-03-22T08:39:44.606Z,11.45
2023-03-22T08:42:24.723Z,11.08
2023-03-22T08:44:52.487Z,11.18
2023-03-22T08:47:21.335Z,11.12
2023-03-22T08:49:52.079Z,10.70
2023-03-22T08:52:24.316Z,9.92
2023-03-22T08:54:59.167Z,9.64
2023-03-22T08:57:58.638Z,8.94
2023-03-22T09:00:47.726Z,9.58
2023-03-22T09:03:30.506Z,10.41
2023-03-22T09:05:57.693Z,10.70
2023-03-22T09:08:27.248Z,10.58
2023-03-22T09:11:01.269Z,10.07
2023-03-22T09:13:31.128Z,10.94
2023-03-22T09:16:00.869Z,10.71
2023-03-22T09:18:32.159Z,11.18
2023-03-22T09:21:02.844Z,10.97
2023-03-22T09:23:37.744Z,10.73
2023-03-22T09:26:08.262Z,11.23
2023-03-22T09:28:36.749Z,11.50
2023-03-22T09:31:09.432Z,11.06
2023-03-22T09:33:38.552Z,10.74
2023-03-22T09:36:06.066Z,10.13
2023-03-22T09:38:35.456Z,9.19
2023-03-22T09:41:07.314Z,9.30
2023-03-22T09:43:39.359Z,9.07
2023-03-22T09:46:15.417Z,9.64
2023-03-22T09:48:44.490Z,10.76
2023-03-22T09:51:29.108Z,11.36
2023-03-22T09:53:55.856Z,10.44
2023-03-22T09:56:29.457Z,10.94
2023-03-22T09:59:14.776Z,11.09
2023-03-22T10:01:57.316Z,11.20
2023-03-22T10:04:33.226Z,12.08
2023-03-22T10:07:24.325Z,11.34
2023-03-22T10:10:18.152Z,10.66
2023-03-22T10:13:19.848Z,11.33
2023-03-22T10:15:49.153Z,10.99
2023-03-22T10:18:30.143Z,11.27
2023-03-22T10:21:02.740Z,11.19
2023-03-22T10:23:49.444Z,11.23
2023-03-22T10:26:24.596Z,11.40
2023-03-22T10:29:03.981Z,11.70
2023-03-22T10:31:32.240Z,11.77
2023-03-22T10:34:01.423Z,11.63
2023-03-22T10:36:34.884Z,11.47
2023-03-22T10:39:14.427Z,11.34
2023-03-22T10:41:41.609Z,11.37
2023-03-22T10:44:10.249Z,11.33
2023-03-22T10:46:42.392Z,11.94
2023-03-22T10:49:18.962Z,11.51
2023-03-22T10:51:50.220Z,11.16
2023-03-22T10:54:18.911Z,11.67
2023-03-22T10:56:46.300Z,11.35
2023-03-22T10:59:51.769Z,11.17
2023-03-22T11:02:21.456Z,11.37
2023-03-22T11:04:52.724Z,11.22
2023-03-22T11:07:44.689Z,11.35
2023-03-22T11:10:27.549Z,11.15
2023-03-22T11:13:16.181Z,11.22
2023-03-22T11:15:52.767Z,11.63
2023-03-22T11:18:20.084Z,11.59
2023-03-22T11:20:58.094Z,11.64
2023-03-22T11:23:26.105Z,11.54
2023-03-22T11:25:56.585Z,11.79
2023-03-22T11:28:47.344Z,11.47
2023-03-22T11:31:17.011Z,11.58
2023-03-22T11:34:02.058Z,11.89
2023-03-22T11:36:29.413Z,11.83
2023-03-22T11:39:07.310Z,11.89
2023-03-22T11:41:39.571Z,12.05
2023-03-22T11:44:10.805Z,11.53
2023-03-22T11:46:38.754Z,11.68
2023-03-22T11:49:09.097Z,11.56
2023-03-22T11:51:39.264Z,11.50
2023-03-22T11:54:27.138Z,11.49
2023-03-22T11:56:58.207Z,11.57
2023-03-22T11:59:28.696Z,11.67
2023-03-22T12:02:27.219Z,11.30
2023-03-22T12:05:05.432Z,11.30
2023-03-22T12:07:34.516Z,11.70
2023-03-22T12:10:15.874Z,11.58
2023-03-22T12:12:54.718Z,11.80
2023-03-22T12:15:25.566Z,11.54
2023-03-22T12:18:15.688Z,11.67
2023-03-22T12:20:59.132Z,11.84
2023-03-22T12:23:35.296Z,11.43
2023-03-22T12:26:08.305Z,11.34
2023-03-22T12:28:42.135Z,11.26
2023-03-22T12:31:25.154Z,11.47
2023-03-22T12:33:55.499Z,11.19
2023-03-22T12:36:41.507Z,10.87
2023-03-22T12:39:24.230Z,10.62
2023-03-22T12:41:55.325Z,10.82
2023-03-22T12:44:32.403Z,10.73
2023-03-22T12:47:27.631Z,10.69
2023-03-22T12:50:01.963Z,10.74
2023-03-22T12:52:45.519Z,10.65
2023-03-22T12:55:29.013Z,10.76
2023-03-22T12:57:56.613Z,10.53
2023-03-22T13:00:36.920Z,10.48
2023-03-22T13:03:16.308Z,10.49
2023-03-22T13:05:45.530Z,10.40
2023-03-22T13:08:13.329Z,10.66
2023-03-22T13:10:48.830Z,10.46
2023-03-22T13:13:21.477Z,10.20
2023-03-22T13:16:10.971Z,10.19
2023-03-22T13:18:38.321Z,10.44
2023-03-22T13:21:17.153Z,10.81
2023-03-22T13:23:57.881Z,11.16
2023-03-22T13:26:46.051Z,10.89
2023-03-22T13:29:22.077Z,11.02
2023-03-22T13:31:51.761Z,11.28
2023-03-22T13:34:37.628Z,11.21
2023-03-22T13:37:11.024Z,11.28
2023-03-22T13:39:39.344Z,11.39
2023-03-22T13:42:19.164Z,11.36
2023-03-22T13:44:53.901Z,11.06
2023-03-22T13:47:32.563Z,10.93
2023-03-22T13:50:22.003Z,10.96
2023-03-22T13:52:59.567Z,11.14
2023-03-22T13:55:47.211Z,10.77
2023-03-22T13:58:36.498Z,10.59
2023-03-22T14:01:28.956Z,10.74
2023-03-22T14:04:01.302Z,10.82
2023-03-22T14:06:33.760Z,10.66
2023-03-22T14:09:28.316Z,10.75
2023-03-22T14:12:14.756Z,10.53
2023-03-22T14:14:47.144Z,10.39
2023-03-22T14:17:34.299Z,10.40
2023-03-22T14:20:01.942Z,9.81
